Time;durP1;ratioP1;P1;durP2;ratioP2;P2;SDS_P1;SDS_P2;PMS_P1;PMS_P2;Temp;Humidity;BMP_temperature;BMP_pressure;BME280_temperature;BME280_humidity;BME280_pressure;Samples;Min_cycle;Max_cycle;Signal;HPM_P1;HPM_P2
2023/01/28 00:02:17;;;;;;;14.98;7.25;;;;;;;2.18;100.00;102700.97;5052640;28;20067;-73
2023/01/28 00:04:43;;;;;;;12.95;7.30;;;;;;;2.20;100.00;102701.09;5043318;28;20444;-74
2023/01/28 00:07:08;;;;;;;15.65;8.10;;;;;;;2.21;100.00;102710.69;5039363;28;20037;-74
2023/01/28 00:09:34;;;;;;;15.73;8.88;;;;;;;2.19;100.00;102702.75;5047613;28;20025;-74
2023/01/28 00:11:59;;;;;;;14.90;7.38;;;;;;;2.21;100.00;102713.28;5050316;28;20399;-74
2023/01/28 00:14:24;;;;;;;13.82;8.30;;;;;;;2.19;100.00;102714.84;5046828;28;20035;-73
2023/01/28 00:16:50;;;;;;;15.00;8.27;;;;;;;2.17;100.00;102708.63;5057480;28;20032;-74
2023/01/28 00:19:15;;;;;;;13.82;8.57;;;;;;;2.13;100.00;102697.09;5050139;28;20111;-73
2023/01/28 00:21:41;;;;;;;12.93;7.38;;;;;;;2.15;100.00;102703.31;5050681;28;20033;-75
2023/01/28 00:24:08;;;;;;;14.02;8.35;;;;;;;2.15;100.00;102705.00;5049403;28;20475;-74
2023/01/28 00:26:34;;;;;;;13.82;8.18;;;;;;;2.16;100.00;102696.44;5052324;28;20531;-73
2023/01/28 00:28:59;;;;;;;14.93;8.13;;;;;;;2.18;100.00;102692.25;5049924;28;20030;-73
2023/01/28 00:31:26;;;;;;;14.00;8.27;;;;;;;2.17;100.00;102693.03;5054443;28;20097;-73
2023/01/28 00:33:53;;;;;;;19.05;9.80;;;;;;;2.17;100.00;102693.03;5051953;28;20036;-74
2023/01/28 00:36:21;;;;;;;16.05;9.98;;;;;;;2.15;100.00;102692.03;5042657;28;20033;-73
2023/01/28 00:38:57;;;;;;;16.25;9.43;;;;;;;2.11;100.00;102696.03;5057846;28;20090;-73
2023/01/28 00:41:28;;;;;;;15.50;8.80;;;;;;;2.15;100.00;102692.91;5045397;28;20029;-73
2023/01/28 00:43:53;;;;;;;21.35;9.50;;;;;;;2.16;100.00;102696.44;5056414;28;20021;-74
2023/01/28 00:46:21;;;;;;;17.35;9.18;;;;;;;2.14;100.00;102696.31;5050793;28;20027;-73
2023/01/28 00:48:47;;;;;;;17.15;9.43;;;;;;;2.14;100.00;102690.19;5051990;28;20025;-73
2023/01/28 00:51:16;;;;;;;16.88;9.85;;;;;;;2.15;100.00;102695.50;5050594;28;20032;-73
2023/01/28 00:53:41;;;;;;;18.75;9.82;;;;;;;2.16;100.00;102696.44;5046428;28;20044;-75
2023/01/28 00:56:10;;;;;;;16.13;10.07;;;;;;;2.15;100.00;102699.81;5058010;28;20060;-74
2023/01/28 00:58:35;;;;;;;16.02;9.07;;;;;;;2.15;100.00;102703.31;5056585;28;20059;-73
2023/01/28 01:01:16;;;;;;;13.63;8.75;;;;;;;2.14;100.00;102706.72;5051025;28;20059;-74
2023/01/28 01:03:41;;;;;;;15.95;9.30;;;;;;;2.15;100.00;102707.59;5051479;28;20102;-73
2023/01/28 01:06:08;;;;;;;18.92;10.00;;;;;;;2.10;100.00;102703.72;5057180;28;20484;-74
2023/01/28 01:08:38;;;;;;;14.88;8.88;;;;;;;2.08;100.00;102706.19;5052469;28;20032;-74
2023/01/28 01:11:06;;;;;;;15.98;9.40;;;;;;;2.09;100.00;102708.03;5056388;28;20040;-73
2023/01/28 01:13:35;;;;;;;17.80;8.57;;;;;;;2.09;100.00;102707.09;5040430;28;20062;-74
2023/01/28 01:16:12;;;;;;;14.32;9.02;;;;;;;2.09;100.00;102717.47;5047497;28;20029;-73
2023/01/28 01:18:42;;;;;;;17.92;9.07;;;;;;;2.08;100.00;102715.69;5053099;28;20093;-73
2023/01/28 01:21:13;;;;;;;14.07;8.40;;;;;;;2.10;100.00;102714.09;5059356;28;20528;-74
2023/01/28 01:23:39;;;;;;;13.73;8.05;;;;;;;2.11;100.00;102710.72;5053878;28;20716;-74
2023/01/28 01:26:05;;;;;;;13.52;8.05;;;;;;;2.08;100.00;102708.78;5043971;28;20103;-74
2023/01/28 01:28:31;;;;;;;15.98;9.45;;;;;;;2.07;100.00;102704.38;5048531;28;20458;-74
2023/01/28 01:31:02;;;;;;;14.80;9.52;;;;;;;2.07;100.00;102706.06;5041224;28;20088;-73
2023/01/28 01:33:29;;;;;;;13.43;8.45;;;;;;;2.03;100.00;102697.13;5049185;28;20033;-74
2023/01/28 01:35:55;;;;;;;19.13;8.88;;;;;;;2.02;100.00;102698.81;5067698;28;20056;-74
2023/01/28 01:38:21;;;;;;;13.90;8.82;;;;;;;2.01;100.00;102702.19;5052755;28;20094;-73
2023/01/28 01:40:46;;;;;;;15.60;8.77;;;;;;;1.97;100.00;102702.72;5051655;28;20041;-74
2023/01/28 01:43:21;;;;;;;13.40;7.82;;;;;;;1.98;100.00;102699.34;5054396;28;20425;-74
2023/01/28 01:45:52;;;;;;;11.07;7.10;;;;;;;2.00;100.00;102700.38;5052410;28;20496;-74
2023/01/28 01:48:27;;;;;;;13.77;7.93;;;;;;;2.00;100.00;102696.88;5049858;28;20503;-73
2023/01/28 01:51:10;;;;;;;12.73;7.55;;;;;;;2.00;100.00;102702.06;5043707;28;20036;-75
2023/01/28 01:53:41;;;;;;;12.77;6.80;;;;;;;1.98;100.00;102704.56;5050116;28;20020;-74
2023/01/28 01:56:11;;;;;;;11.27;7.30;;;;;;;1.97;100.00;102702.72;5044388;28;20029;-73
2023/01/28 01:58:40;;;;;;;16.48;7.72;;;;;;;1.93;100.00;102698.06;5054388;28;20024;-73
2023/01/28 02:01:06;;;;;;;10.30;6.60;;;;;;;1.91;100.00;102696.13;5048615;28;20168;-74
2023/01/28 02:03:40;;;;;;;11.05;7.00;;;;;;;1.86;100.00;102695.75;5068363;28;20036;-73
2023/01/28 02:06:07;;;;;;;12.77;7.57;;;;;;;1.88;100.00;102695.88;5044451;28;20124;-72
2023/01/28 02:08:33;;;;;;;11.45;6.78;;;;;;;1.89;100.00;102701.19;5052064;28;20037;-73
2023/01/28 02:11:02;;;;;;;10.88;6.95;;;;;;;1.89;100.00;102702.91;5048843;28;20487;-73
2023/01/28 02:13:33;;;;;;;12.50;7.05;;;;;;;1.90;100.00;102705.63;5050767;28;20428;-74
2023/01/28 02:16:01;;;;;;;12.45;7.22;;;;;;;1.90;100.00;102713.41;5055217;28;20025;-74
2023/01/28 02:18:26;;;;;;;13.45;7.10;;;;;;;1.88;100.00;102707.16;5048653;28;20469;-73
2023/01/28 02:20:55;;;;;;;11.10;6.78;;;;;;;1.87;100.00;102709.63;5052564;28;20031;-73
2023/01/28 02:23:35;;;;;;;16.08;7.45;;;;;;;1.88;100.00;102712.34;5052182;28;20107;-74
2023/01/28 02:26:17;;;;;;;11.48;6.43;;;;;;;1.89;100.00;102716.78;5048575;28;20025;-74
2023/01/28 02:29:20;;;;;;;12.30;6.80;;;;;;;1.88;100.00;102727.94;5064767;28;20044;-75
2023/01/28 02:31:54;;;;;;;10.98;7.10;;;;;;;1.83;100.00;102724.03;5047854;28;20028;-74
2023/01/28 02:34:29;;;;;;;;;;;;;;;1.81;100.00;102720.44;5042330;28;20044;-75
2023/01/28 02:37:01;;;;;;;8.73;5.93;;;;;;;1.82;100.00;102722.25;5055830;28;19978;-74
2023/01/28 02:39:37;;;;;;;9.85;6.25;;;;;;;1.81;100.00;102716.13;5049192;28;20028;-74
2023/01/28 02:42:05;;;;;;;11.65;6.60;;;;;;;1.84;100.00;102720.66;5049502;28;20028;-73
2023/01/28 02:44:30;;;;;;;8.73;5.57;;;;;;;1.83;100.00;102714.59;5045076;28;20033;-73
2023/01/28 02:49:43;;;;;;;14.90;6.05;;;;;;;1.82;100.00;102717.06;5040439;28;20036;-74
2023/01/28 02:55:55;;;;;;;7.97;5.18;;;;;;;1.83;100.00;102718.84;5049929;28;20043;-73
2023/01/28 02:58:32;;;;;;;8.75;5.35;;;;;;;1.81;100.00;102721.31;5052826;28;20492;-73
2023/01/28 03:01:03;;;;;;;8.35;5.18;;;;;;;1.81;100.00;102718.72;5043773;28;20481;-73
2023/01/28 03:03:41;;;;;;;9.15;5.28;;;;;;;1.81;100.00;102723.03;5052707;28;20041;-73
2023/01/28 03:06:11;;;;;;;8.52;5.18;;;;;;;1.80;100.00;102723.78;5068057;28;20397;-74
2023/01/28 03:37:16;;;;;;;8.25;4.28;;;;;;;1.81;100.00;102712.63;5042639;28;20039;-74
2023/01/28 03:39:41;;;;;;;6.28;4.88;;;;;;;1.82;100.00;102717.94;5049223;28;20103;-74
2023/01/28 03:42:10;;;;;;;8.20;5.25;;;;;;;1.83;100.00;102718.84;5053747;28;20492;-74
2023/01/28 03:44:54;;;;;;;7.55;5.13;;;;;;;1.84;100.00;102715.47;5043356;28;20044;-74
2023/01/28 03:47:24;;;;;;;9.57;5.32;;;;;;;1.83;100.00;102719.78;5041190;28;20045;-73
2023/01/28 03:49:51;;;;;;;11.75;6.50;;;;;;;1.83;100.00;102724.97;5033518;28;20112;-74
2023/01/28 03:52:22;;;;;;;8.15;5.43;;;;;;;1.83;100.00;102722.38;5049288;28;20491;-73
2023/01/28 03:54:47;;;;;;;10.05;5.60;;;;;;;1.83;100.00;102731.81;5057434;28;20024;-73
2023/01/28 03:57:14;;;;;;;8.05;5.10;;;;;;;1.83;100.00;102737.03;5062356;28;20028;-73
2023/01/28 03:59:40;;;;;;;8.95;5.38;;;;;;;1.82;100.00;102746.50;5055046;28;20124;-74
2023/01/28 04:02:06;;;;;;;9.38;5.50;;;;;;;1.80;100.00;102749.75;5053605;28;20108;-73
2023/01/28 04:04:32;;;;;;;9.88;5.45;;;;;;;1.82;100.00;102749.09;5061384;28;20132;-73
2023/01/28 04:06:58;;;;;;;9.43;5.05;;;;;;;1.78;100.00;102751.34;5051165;28;20113;-72
2023/01/28 04:09:24;;;;;;;11.27;5.65;;;;;;;1.82;100.00;102746.50;5059936;28;20132;-74
2023/01/28 04:11:50;;;;;;;11.63;5.40;;;;;;;1.76;100.00;102743.38;5050097;28;20549;-73
2023/01/28 04:14:17;;;;;;;6.38;5.07;;;;;;;1.75;100.00;102749.38;5047147;28;20067;-73
2023/01/28 04:16:43;;;;;;;8.20;5.28;;;;;;;1.79;100.00;102747.94;5051191;28;20085;-73
2023/01/28 04:19:09;;;;;;;7.05;5.15;;;;;;;1.78;100.00;102746.13;5041548;28;20056;-74
2023/01/28 04:21:35;;;;;;;8.45;5.28;;;;;;;1.79;100.00;102745.34;5047726;28;20114;-74
2023/01/28 04:24:00;;;;;;;8.10;4.28;;;;;;;1.79;100.00;102747.94;5050067;28;20087;-73
2023/01/28 04:26:26;;;;;;;11.00;4.90;;;;;;;1.78;100.00;102753.94;5053900;28;20551;-74
2023/01/28 04:28:52;;;;;;;6.78;5.07;;;;;;;1.76;100.00;102750.28;5048406;28;20035;-74
2023/01/28 04:31:17;;;;;;;7.90;5.13;;;;;;;1.77;100.00;102745.22;5044991;28;20124;-74
2023/01/28 04:33:42;;;;;;;6.93;4.75;;;;;;;1.77;100.00;102741.72;5044157;28;20118;-73
2023/01/28 04:36:08;;;;;;;11.68;5.22;;;;;;;1.75;100.00;102735.47;5040340;28;20378;-74
2023/01/28 04:38:33;;;;;;;9.50;4.80;;;;;;;1.76;100.00;102734.72;5046718;28;20087;-73
2023/01/28 04:40:59;;;;;;;6.30;4.65;;;;;;;1.65;100.00;102737.31;5054210;28;20028;-74
2023/01/28 04:43:24;;;;;;;10.18;4.93;;;;;;;1.65;100.00;102733.81;5050210;28;20041;-74
2023/01/28 04:45:49;;;;;;;8.55;4.50;;;;;;;1.66;100.00;102725.25;5050895;28;20463;-74
2023/01/28 04:48:15;;;;;;;6.72;4.07;;;;;;;1.68;100.00;102735.00;5041878;28;20025;-74
2023/01/28 04:50:41;;;;;;;6.15;4.43;;;;;;;1.71;100.00;102730.81;5044026;28;20214;-74
2023/01/28 04:53:07;;;;;;;7.60;4.60;;;;;;;1.71;100.00;102728.22;5046853;28;20099;-73
2023/01/28 04:55:32;;;;;;;12.48;4.93;;;;;;;1.68;100.00;102729.81;5053912;28;20846;-74
2023/01/28 04:58:01;;;;;;;6.15;4.05;;;;;;;1.75;100.00;102725.09;5063075;28;20037;-74
2023/01/28 05:00:26;;;;;;;7.38;4.65;;;;;;;1.72;100.00;102728.34;5039692;28;20489;-73
2023/01/28 05:02:51;;;;;;;7.10;4.53;;;;;;;1.75;100.00;102735.47;5051597;28;20049;-73
2023/01/28 05:05:17;;;;;;;6.57;4.35;;;;;;;1.74;100.00;102746.66;5046164;28;20511;-73
2023/01/28 05:07:42;;;;;;;6.70;4.88;;;;;;;1.74;100.00;102741.47;5056653;28;20469;-74
2023/01/28 05:10:08;;;;;;;5.80;3.90;;;;;;;1.72;100.00;102737.81;5053122;28;20099;-73
2023/01/28 05:12:33;;;;;;;7.20;4.57;;;;;;;1.74;100.00;102744.06;5053417;28;20025;-73
2023/01/28 05:14:59;;;;;;;6.93;4.47;;;;;;;1.72;100.00;102746.50;5058166;28;20648;-73
2023/01/28 05:17:26;;;;;;;7.10;4.00;;;;;;;1.73;100.00;102747.44;5055142;28;20048;-75
2023/01/28 05:19:51;;;;;;;7.68;4.63;;;;;;;1.73;100.00;102743.16;5048451;28;20500;-73
2023/01/28 05:22:16;;;;;;;7.68;4.80;;;;;;;1.71;100.00;102738.59;5046609;28;20028;-73
2023/01/28 05:24:42;;;;;;;10.65;4.85;;;;;;;1.67;100.00;102732.28;5053519;28;20033;-73
2023/01/28 05:27:07;;;;;;;8.07;5.55;;;;;;;1.60;100.00;102729.91;5055726;28;20021;-74
2023/01/28 05:29:32;;;;;;;7.03;4.72;;;;;;;1.60;100.00;102740.31;5054205;28;20107;-75
2023/01/28 05:31:58;;;;;;;6.38;4.10;;;;;;;1.65;100.00;102739.00;5046371;28;20095;-73
2023/01/28 05:34:23;;;;;;;7.15;4.40;;;;;;;1.66;100.00;102733.03;5049850;28;20032;-74
2023/01/28 05:36:49;;;;;;;6.80;5.18;;;;;;;1.61;100.00;102732.63;5058186;28;20021;-74
2023/01/28 05:39:14;;;;;;;9.13;4.53;;;;;;;1.66;100.00;102731.34;5053498;28;20074;-74
2023/01/28 05:41:39;;;;;;;8.65;5.63;;;;;;;1.68;100.00;102729.81;5056742;28;20021;-74
2023/01/28 05:44:05;;;;;;;10.63;5.18;;;;;;;1.68;100.00;102729.81;5052920;28;20737;-74
2023/01/28 05:46:30;;;;;;;11.23;4.40;;;;;;;1.65;100.00;102719.13;5062547;28;20460;-73
2023/01/28 05:48:55;;;;;;;7.15;4.53;;;;;;;1.66;100.00;102730.44;5048604;28;20040;-74
2023/01/28 05:51:20;;;;;;;8.10;4.95;;;;;;;1.63;100.00;102723.31;5049060;28;20049;-73
2023/01/28 05:53:46;;;;;;;6.47;4.63;;;;;;;1.65;100.00;102728.63;5058647;28;20388;-73
2023/01/28 05:56:11;;;;;;;7.43;4.97;;;;;;;1.61;100.00;102724.84;5056556;28;20473;-74
2023/01/28 05:58:36;;;;;;;6.35;4.80;;;;;;;1.61;100.00;102722.25;5055607;28;20183;-72
2023/01/28 06:01:02;;;;;;;7.97;4.85;;;;;;;1.61;100.00;102722.25;5044865;28;20384;-73
2023/01/28 06:03:27;;;;;;;10.48;5.60;;;;;;;1.63;100.00;102731.09;5054402;28;20060;-73
2023/01/28 06:05:53;;;;;;;6.68;4.38;;;;;;;1.63;100.00;102725.91;5052449;28;20059;-73
2023/01/28 06:08:18;;;;;;;6.63;4.30;;;;;;;1.64;100.00;102727.72;5056521;28;20428;-73
2023/01/28 06:10:43;;;;;;;7.07;4.30;;;;;;;1.63;100.00;102731.09;5041681;28;20464;-74
2023/01/28 06:13:08;;;;;;;12.05;4.82;;;;;;;1.63;100.00;102731.09;5049489;28;20036;-74
2023/01/28 06:15:34;;;;;;;7.75;4.90;;;;;;;1.63;100.00;102730.19;5050631;28;20029;-74
2023/01/28 06:17:59;;;;;;;9.18;5.30;;;;;;;1.57;100.00;102733.16;5052981;28;20106;-73
2023/01/28 06:20:25;;;;;;;7.88;5.00;;;;;;;1.58;100.00;102737.59;5042530;28;20023;-73
2023/01/28 06:22:51;;;;;;;6.82;4.65;;;;;;;1.57;100.00;102738.34;5038109;28;20477;-74
2023/01/28 06:25:17;;;;;;;8.18;5.55;;;;;;;1.60;100.00;102745.50;5043911;28;20423;-73
2023/01/28 06:27:42;;;;;;;9.20;5.85;;;;;;;1.59;100.00;102749.78;5051527;28;20107;-74
2023/01/28 06:30:08;;;;;;;8.30;5.45;;;;;;;1.60;100.00;102746.41;5041842;28;20623;-74
2023/01/28 06:32:34;;;;;;;7.70;5.38;;;;;;;1.60;100.00;102742.91;5043107;28;20031;-75
2023/01/28 06:34:59;;;;;;;14.60;5.88;;;;;;;1.59;100.00;102747.19;5058687;28;20110;-74
2023/01/28 06:37:25;;;;;;;8.50;5.53;;;;;;;1.52;100.00;102737.09;5056285;28;20037;-74
2023/01/28 06:39:50;;;;;;;8.80;5.15;;;;;;;1.55;100.00;102739.00;5052321;28;20445;-74
2023/01/28 06:42:16;;;;;;;12.77;7.07;;;;;;;1.55;100.00;102739.94;5049246;28;20108;-73
2023/01/28 06:44:41;;;;;;;7.00;5.40;;;;;;;1.52;100.00;102742.28;5044015;28;20109;-74
2023/01/28 06:47:08;;;;;;;10.25;6.75;;;;;;;1.54;100.00;102745.88;5047565;28;20365;-74
2023/01/28 06:49:33;;;;;;;11.57;5.82;;;;;;;1.56;100.00;102744.34;5036117;28;20072;-74
2023/01/28 06:51:58;;;;;;;9.40;5.70;;;;;;;1.55;100.00;102752.91;5040760;28;20029;-74
2023/01/28 06:54:24;;;;;;;7.90;5.45;;;;;;;1.55;100.00;102747.72;5043235;28;20465;-75
2023/01/28 06:56:51;;;;;;;11.23;5.88;;;;;;;1.55;100.00;102752.91;5043697;28;20515;-74
2023/01/28 06:59:16;;;;;;;9.10;5.30;;;;;;;1.51;100.00;102741.34;5045704;28;20028;-74
2023/01/28 07:01:41;;;;;;;11.20;5.78;;;;;;;1.51;100.00;102737.84;5040872;28;20377;-74
2023/01/28 07:04:07;;;;;;;9.32;6.30;;;;;;;1.51;100.00;102743.94;5046786;28;20032;-74
2023/01/28 07:06:33;;;;;;;11.85;5.47;;;;;;;1.46;100.00;102749.53;5049019;28;20024;-74
2023/01/28 07:08:58;;;;;;;8.93;5.47;;;;;;;1.45;100.00;102755.50;5042481;28;20033;-74
2023/01/28 07:11:24;;;;;;;8.32;5.63;;;;;;;1.43;100.00;102757.94;5046449;28;20033;-75
2023/01/28 07:13:49;;;;;;;11.52;5.28;;;;;;;1.41;100.00;102750.81;5042561;28;20030;-75
2023/01/28 07:16:15;;;;;;;7.63;5.20;;;;;;;1.42;100.00;102750.06;5051083;28;20031;-74
2023/01/28 07:18:40;;;;;;;9.45;5.90;;;;;;;1.43;100.00;102751.88;5049001;28;20428;-75
2023/01/28 07:21:05;;;;;;;8.40;5.68;;;;;;;1.43;100.00;102754.47;5040836;28;20036;-74
2023/01/28 07:23:30;;;;;;;8.85;5.60;;;;;;;1.43;100.00;102755.38;5037922;28;20024;-75
2023/01/28 07:26:01;;;;;;;8.20;5.30;;;;;;;1.42;100.00;102771.69;5051359;28;20031;-75
2023/01/28 07:28:26;;;;;;;13.60;6.05;;;;;;;1.42;100.00;102756.13;5048372;28;20104;-74
2023/01/28 07:30:52;;;;;;;8.93;5.93;;;;;;;1.43;100.00;102762.25;5048420;28;20130;-73
2023/01/28 07:33:17;;;;;;;12.00;6.07;;;;;;;1.41;100.00;102749.16;5047056;28;20499;-75
2023/01/28 07:35:43;;;;;;;11.98;6.05;;;;;;;1.42;100.00;102755.25;5049776;28;20026;-75
2023/01/28 07:38:08;;;;;;;8.40;5.65;;;;;;;1.38;100.00;102754.06;5050482;28;20486;-73
2023/01/28 07:40:33;;;;;;;11.82;6.13;;;;;;;1.38;100.00;102754.06;5045656;28;20033;-74
2023/01/28 07:42:59;;;;;;;10.85;6.18;;;;;;;1.40;100.00;102756.78;5046769;28;20376;-73
2023/01/28 07:45:25;;;;;;;10.55;6.63;;;;;;;1.37;100.00;102764.31;5045053;28;20488;-74
2023/01/28 07:47:54;;;;;;;8.80;5.80;;;;;;;1.31;100.00;102763.00;5049977;28;20021;-74
2023/01/28 07:50:20;;;;;;;8.82;5.55;;;;;;;1.32;100.00;102764.81;5064883;28;20025;-73
2023/01/28 07:52:45;;;;;;;10.13;6.30;;;;;;;1.31;100.00;102762.09;5049007;28;20419;-74
2023/01/28 07:55:14;;;;;;;10.88;6.35;;;;;;;1.31;100.00;102768.19;5049988;28;20365;-75
2023/01/28 07:57:49;;;;;;;9.75;6.60;;;;;;;1.29;100.00;102772.34;5047191;28;20050;-74
2023/01/28 08:00:15;;;;;;;11.75;6.40;;;;;;;1.27;100.00;102775.59;5047838;28;20095;-74
2023/01/28 08:02:43;;;;;;;10.70;6.85;;;;;;;1.28;100.00;102788.69;5063159;28;20183;-73
2023/01/28 08:05:09;;;;;;;8.23;5.80;;;;;;;1.29;100.00;102784.41;5051952;28;20053;-74
2023/01/28 08:07:34;;;;;;;9.43;5.85;;;;;;;1.29;100.00;102793.09;5046899;28;20098;-74
2023/01/28 08:09:59;;;;;;;10.32;6.90;;;;;;;1.37;100.00;102790.25;5049658;28;20029;-74
2023/01/28 08:12:26;;;;;;;9.98;6.35;;;;;;;1.40;100.00;102791.44;5049138;28;20029;-75
2023/01/28 08:14:52;;;;;;;9.63;6.20;;;;;;;1.44;100.00;102789.97;5047361;28;20084;-75
2023/01/28 08:17:17;;;;;;;10.45;6.15;;;;;;;1.43;100.00;102788.19;5052933;28;20090;-75
2023/01/28 08:19:42;;;;;;;9.77;6.35;;;;;;;1.44;100.00;102796.09;5062250;28;20056;-73
2023/01/28 08:22:08;;;;;;;11.00;5.93;;;;;;;1.46;100.00;102798.81;5050861;28;20040;-74
2023/01/28 08:24:33;;;;;;;10.75;5.97;;;;;;;1.53;100.00;102798.53;5052120;28;20491;-73
2023/01/28 08:26:58;;;;;;;11.32;5.15;;;;;;;1.58;100.00;102806.75;5053879;28;20025;-73
2023/01/28 08:29:24;;;;;;;9.73;5.88;;;;;;;1.59;100.00;102805.97;5053217;28;20030;-73
2023/01/28 08:31:49;;;;;;;10.10;6.32;;;;;;;1.63;100.00;102808.94;5051272;28;20089;-74
2023/01/28 08:34:14;;;;;;;10.75;6.63;;;;;;;1.65;100.00;102820.34;5052364;28;20025;-73
2023/01/28 08:36:40;;;;;;;8.90;5.47;;;;;;;1.66;100.00;102814.38;5051236;28;20083;-73
2023/01/28 08:39:05;;;;;;;10.35;6.93;;;;;;;1.73;100.00;102815.81;5052761;28;20476;-73
2023/01/28 08:41:30;;;;;;;9.07;6.13;;;;;;;1.72;100.00;102807.91;5053988;28;20043;-74
2023/01/28 08:43:56;;;;;;;9.93;6.38;;;;;;;1.76;100.00;102809.97;5051571;28;20473;-73
2023/01/28 08:46:22;;;;;;;10.20;6.53;;;;;;;1.82;100.00;102819.19;5050859;28;20021;-75
2023/01/28 08:48:49;;;;;;;9.52;6.20;;;;;;;1.84;100.00;102829.69;5051184;28;20382;-74
2023/01/28 08:51:14;;;;;;;8.75;6.07;;;;;;;1.89;100.00;102828.41;5045979;28;20098;-75
2023/01/28 08:53:40;;;;;;;9.55;6.45;;;;;;;1.89;100.00;102833.59;5053904;28;20024;-73
2023/01/28 08:56:05;;;;;;;7.82;5.38;;;;;;;1.90;100.00;102834.50;5049922;28;20039;-75
2023/01/28 08:58:31;;;;;;;6.60;4.85;;;;;;;1.94;100.00;102841.75;5038918;28;20029;-74
2023/01/28 09:00:56;;;;;;;12.45;5.97;;;;;;;1.96;100.00;102832.41;5046762;28;20033;-74
2023/01/28 09:03:22;;;;;;;13.98;5.97;;;;;;;2.03;100.00;102834.75;5048602;28;20044;-74
2023/01/28 09:05:49;;;;;;;10.20;5.80;;;;;;;2.13;100.00;102842.53;5046903;28;20060;-74
2023/01/28 09:08:15;;;;;;;8.70;5.38;;;;;;;2.21;100.00;102850.03;5051884;28;20079;-73
2023/01/28 09:10:41;;;;;;;10.32;6.03;;;;;;;2.25;100.00;102840.03;5052764;28;20032;-74
2023/01/28 09:13:09;;;;;;;8.20;4.85;;;;;;;2.41;100.00;102841.28;5052262;28;20349;-73
2023/01/28 09:15:36;;;;;;;7.22;5.28;;;;;;;2.42;100.00;102850.91;5054087;28;20124;-73
2023/01/28 09:18:02;;;;;;;10.95;5.45;;;;;;;2.56;100.00;102852.94;5059776;28;20099;-72
2023/01/28 09:20:27;;;;;;;7.88;5.03;;;;;;;2.66;100.00;102865.00;5055635;28;20036;-74
2023/01/28 09:22:53;;;;;;;7.90;5.25;;;;;;;2.77;100.00;102860.66;5052752;28;20040;-72
2023/01/28 09:25:18;;;;;;;8.02;4.90;;;;;;;2.82;100.00;102857.66;5056755;28;20543;-73
2023/01/28 09:27:44;;;;;;;6.93;4.95;;;;;;;2.92;100.00;102869.72;5055297;28;20024;-73
2023/01/28 09:30:10;;;;;;;9.23;5.05;;;;;;;3.01;100.00;102869.53;5059765;28;20115;-72
2023/01/28 09:32:35;;;;;;;8.65;4.68;;;;;;;3.02;100.00;102872.25;5055527;28;20488;-73
2023/01/28 09:35:01;;;;;;;6.32;4.65;;;;;;;3.04;100.00;102870.69;5055588;28;20029;-73
2023/01/28 09:37:27;;;;;;;9.00;4.97;;;;;;;3.03;100.00;102868.88;5052462;28;20362;-73
2023/01/28 09:39:52;;;;;;;10.95;4.55;;;;;;;3.18;100.00;102883.88;5054212;28;20029;-73
2023/01/28 09:42:38;;;;;;;8.20;4.90;;;;;;;3.33;100.00;102887.69;5055970;28;20500;-73
2023/01/28 09:45:07;;;;;;;9.32;5.30;;;;;;;3.37;100.00;102881.94;5060777;28;20036;-72
2023/01/28 09:47:47;;;;;;;6.78;4.68;;;;;;;3.47;100.00;102877.47;5054952;28;20052;-73
2023/01/28 09:50:34;;;;;;;8.48;5.18;;;;;;;3.77;100.00;102872.81;5064018;28;20039;-73
2023/01/28 09:53:24;;;;;;;6.63;4.70;;;;;;;4.06;100.00;102882.88;5051160;28;20473;-73
2023/01/28 09:55:54;;;;;;;10.40;4.97;;;;;;;4.08;100.00;102880.38;5060222;28;20103;-72
2023/01/28 09:58:20;;;;;;;6.00;4.43;;;;;;;4.30;100.00;102877.69;5052968;28;20032;-72
2023/01/28 10:00:55;;;;;;;7.85;5.55;;;;;;;4.41;100.00;102887.25;5049598;28;20036;-73
2023/01/28 10:03:44;;;;;;;10.05;5.20;;;;;;;4.91;100.00;102897.00;5048798;28;20031;-73
2023/01/28 10:06:21;;;;;;;8.73;5.63;;;;;;;4.76;100.00;102895.84;5027707;28;20057;-75
2023/01/28 10:09:05;;;;;;;8.18;5.57;;;;;;;4.78;nan;102894.28;5041680;28;20499;-76
2023/01/28 10:11:55;;;;;;;9.93;5.70;;;;;;;5.01;94.53;102894.22;5058440;28;20104;-75
2023/01/28 10:14:33;;;;;;;5.97;4.97;;;;;;;5.21;87.20;102889.56;5050563;28;20163;-75
2023/01/28 10:17:08;;;;;;;11.48;4.78;;;;;;;5.12;98.26;102892.41;5054893;28;20025;-75
2023/01/28 10:19:42;;;;;;;5.88;3.95;;;;;;;5.32;84.70;102879.88;5061848;28;20028;-75
2023/01/28 10:22:25;;;;;;;7.03;4.25;;;;;;;5.60;82.49;102881.81;5057488;28;20033;-73
2023/01/28 10:24:57;;;;;;;5.20;3.97;;;;;;;5.71;85.53;102891.28;5052924;28;20157;-73
2023/01/28 10:27:28;;;;;;;5.65;4.32;;;;;;;5.71;79.65;102881.75;5057610;28;20033;-72
2023/01/28 10:29:54;;;;;;;6.60;4.47;;;;;;;5.66;83.51;102880.53;5055773;28;20040;-77
2023/01/28 10:32:29;;;;;;;7.53;4.57;;;;;;;5.54;88.84;102879.69;5062653;28;20025;-74
2023/01/28 10:34:55;;;;;;;7.30;4.85;;;;;;;5.87;82.21;102872.34;5051592;28;20067;-73
2023/01/28 10:37:21;;;;;;;4.97;3.90;;;;;;;5.96;82.92;102879.94;5046816;28;20024;-75
2023/01/28 10:39:47;;;;;;;6.43;3.92;;;;;;;6.31;88.86;102879.75;5049757;28;20087;-75
2023/01/28 10:42:37;;;;;;;8.10;4.13;;;;;;;6.32;79.83;102878.94;5053696;28;20029;-75
2023/01/28 10:45:17;;;;;;;8.30;4.68;;;;;;;6.03;86.91;102875.25;5043916;28;20044;-75
2023/01/28 10:47:50;;;;;;;4.55;3.97;;;;;;;6.86;85.25;102873.69;5047737;28;20025;-75
2023/01/28 10:50:27;;;;;;;4.55;3.65;;;;;;;6.58;79.51;102856.22;5053551;28;20396;-74
2023/01/28 10:52:54;;;;;;;6.53;3.13;;;;;;;6.75;81.49;102853.00;5047401;28;20055;-75
2023/01/28 10:55:21;;;;;;;5.43;4.00;;;;;;;6.68;81.72;102847.25;5050842;28;20032;-75
2023/01/28 10:57:47;;;;;;;4.88;3.92;;;;;;;7.39;78.01;102836.91;5049321;28;20028;-74
2023/01/28 11:00:36;;;;;;;5.05;3.30;;;;;;;7.84;66.43;102837.00;5049666;28;20346;-74
2023/01/28 11:03:02;;;;;;;5.53;4.15;;;;;;;8.10;60.65;102814.94;5049135;28;20389;-75
2023/01/28 11:05:30;;;;;;;7.57;4.05;;;;;;;8.62;58.58;102808.28;5048622;28;20072;-76
2023/01/28 11:08:16;;;;;;;5.60;3.40;;;;;;;8.39;56.80;102799.97;5046333;28;20021;-75
2023/01/28 11:10:43;;;;;;;5.97;4.13;;;;;;;8.55;58.52;102793.91;5048627;28;20029;-76
2023/01/28 11:13:26;;;;;;;3.85;3.45;;;;;;;8.80;56.40;102804.88;5045162;28;20554;-75
2023/01/28 11:16:04;;;;;;;8.88;3.20;;;;;;;9.27;54.31;102790.81;5044706;28;20053;-75
2023/01/28 11:18:38;;;;;;;3.42;2.70;;;;;;;9.37;54.18;102794.84;5046995;28;20025;-74
2023/01/28 11:21:25;;;;;;;3.55;2.63;;;;;;;9.42;53.30;102788.09;5043484;28;20504;-75
2023/01/28 11:23:54;;;;;;;6.43;3.10;;;;;;;9.11;56.00;102782.13;5045516;28;20029;-75
2023/01/28 11:26:26;;;;;;;6.20;3.88;;;;;;;9.07;57.07;102776.63;5047132;28;20477;-73
2023/01/28 11:28:52;;;;;;;7.90;3.63;;;;;;;9.07;55.68;102763.47;5051865;28;20493;-74
2023/01/28 11:31:20;;;;;;;8.60;4.13;;;;;;;9.00;56.36;102754.38;5046053;28;20059;-74
2023/01/28 11:33:50;;;;;;;7.70;3.75;;;;;;;9.57;54.49;102751.22;5050179;28;20031;-75
2023/01/28 11:36:21;;;;;;;6.95;4.68;;;;;;;9.35;56.10;102746.56;5054784;28;20032;-75
2023/01/28 11:38:49;;;;;;;6.18;3.85;;;;;;;9.72;53.25;102766.84;5059081;28;20503;-74
2023/01/28 11:41:15;;;;;;;6.40;4.38;;;;;;;9.92;51.21;102773.13;5051097;28;20026;-73
2023/01/28 11:43:41;;;;;;;5.07;4.07;;;;;;;9.11;53.51;102774.25;5049405;28;20488;-74
2023/01/28 11:46:19;;;;;;;5.75;4.22;;;;;;;9.65;52.89;102770.91;5037125;28;20104;-75
2023/01/28 11:49:02;;;;;;;4.95;3.58;;;;;;;9.91;51.36;102773.94;5050639;28;20029;-75
2023/01/28 11:51:30;;;;;;;10.60;4.25;;;;;;;9.16;56.87;102768.34;5049699;28;20044;-75
2023/01/28 11:54:18;;;;;;;5.13;3.78;;;;;;;9.06;57.33;102777.41;5047306;28;20115;-75
2023/01/28 11:57:23;;;;;;;5.32;4.57;;;;;;;9.69;52.92;102777.22;5042607;28;20025;-73
2023/01/28 11:59:53;;;;;;;;;;;;;;;9.91;54.63;102780.09;4993752;28;20037;-73
2023/01/28 12:02:36;;;;;;;5.72;4.20;;;;;;;10.21;51.80;102774.56;4990838;28;19913;-72
2023/01/28 12:05:20;;;;;;;7.60;4.70;;;;;;;10.17;50.95;102784.88;5025429;28;20071;-73
2023/01/28 12:07:55;;;;;;;6.05;4.88;;;;;;;9.92;50.68;102796.81;5049289;28;20033;-73